Forside
METAR-TAF:

METAR-TAF

Lufthavne :

Scatsta, Shetlandsøerne, Skotland

Breddekreds: 60-26N, længdekreds: 001-18W, højde: 22 m

Aktuelle vejr

Denne rapport blev lavet for 38 minutter siden, kl. 13:50 UTC
Vind 14 kt fra vestnordvest
Temperatur 8°C
Fugtighed 76%
Tryk 1025 hPa
Sigt 10 km eller mere
Nogle få skyer i en højde af 1400 ft
Brudte skyer i en højde af 2200 ft
byger i nærheden

METAR: EGPM 311350Z 29014KT 9999 VCSH FEW014 BKN022 08/04 Q1025 NOSIG

Tid: 15:28 (14:28 UTC)

Vejrudsigter

Denne rapport blev lavet for 3 timer og 25 minutter siden, kl. 11:03 UTC
Foreløbig gælder fra 31 på 12 UTC til 31 på 20 UTC
Vind 17 kt fra vest
Sigt 10 km eller mere
Spredte skyer i en højde af 2500 ft
Sandsynlighed 40% :
Midlertidig
fra 31 på 12 UTC til 31 på 20 UTC
Sigt: 6000 m
Brudte skyer i en højde af 1200 ft
regnbyger

TAF: EGPM 311103Z 3112/3120 27017KT 9999 SCT025 PROB40 TEMPO 3112/3120 6000 SHRA BKN012

Vejrobservationer og prognoser fra mere end 4000 lufthavne (METAR og TAF).

De gule og røde prikker repræsenterer de meteorologiske stationer.

Flyt musen over at se navnet på stationen.

Så klik over at se vejr observationer og prognoser.

At skifte det kort: Klik på de grønne knapper med et sort kors for at zoome ind; på den grønne knap med en bindestreg for at zoome ud; eller på de grønne pile for tilstødende kort.


METAR-TAF: